sensor_id;sensor_type;location;lat;lon;timestamp;P1;durP1;ratioP1;P2;durP2;ratioP2
61638;SDS011;47544;52.484;4.658;2023-11-19T00:00:02;20.00;;;3.45;;
61638;SDS011;47544;52.484;4.658;2023-11-19T00:00:15;17.60;;;3.50;;
61638;SDS011;47544;52.484;4.658;2023-11-19T00:00:26;13.60;;;3.15;;
61638;SDS011;47544;52.484;4.658;2023-11-19T00:00:38;12.40;;;3.07;;
61638;SDS011;47544;52.484;4.658;2023-11-19T00:00:49;14.27;;;3.35;;
61638;SDS011;47544;52.484;4.658;2023-11-19T00:01:01;17.42;;;3.42;;
61638;SDS011;47544;52.484;4.658;2023-11-19T00:01:12;16.23;;;3.13;;
61638;SDS011;47544;52.484;4.658;2023-11-19T00:01:26;16.38;;;2.78;;
61638;SDS011;47544;52.484;4.658;2023-11-19T00:01:36;18.80;;;3.03;;
61638;SDS011;47544;52.484;4.658;2023-11-19T00:01:47;19.38;;;2.97;;
61638;SDS011;47544;52.484;4.658;2023-11-19T00:01:58;20.27;;;3.00;;
61638;SDS011;47544;52.484;4.658;2023-11-19T00:02:10;19.92;;;3.10;;
61638;SDS011;47544;52.484;4.658;2023-11-19T00:02:21;16.87;;;3.07;;
61638;SDS011;47544;52.484;4.658;2023-11-19T00:02:34;14.77;;;3.38;;
61638;SDS011;47544;52.484;4.658;2023-11-19T00:02:45;19.77;;;3.63;;
61638;SDS011;47544;52.484;4.658;2023-11-19T00:02:58;19.25;;;3.42;;
61638;SDS011;47544;52.484;4.658;2023-11-19T00:03:08;15.30;;;2.45;;
61638;SDS011;47544;52.484;4.658;2023-11-19T00:03:24;13.57;;;2.58;;
61638;SDS011;47544;52.484;4.658;2023-11-19T00:03:35;15.98;;;3.03;;
61638;SDS011;47544;52.484;4.658;2023-11-19T00:03:46;15.40;;;2.78;;
61638;SDS011;47544;52.484;4.658;2023-11-19T00:03:59;12.65;;;2.42;;
61638;SDS011;47544;52.484;4.658;2023-11-19T00:04:09;13.55;;;2.63;;
61638;SDS011;47544;52.484;4.658;2023-11-19T00:04:20;15.23;;;2.92;;
61638;SDS011;47544;52.484;4.658;2023-11-19T00:04:31;15.52;;;3.17;;
61638;SDS011;47544;52.484;4.658;2023-11-19T00:04:42;14.80;;;3.22;;
61638;SDS011;47544;52.484;4.658;2023-11-19T00:04:53;16.50;;;3.23;;
61638;SDS011;47544;52.484;4.658;2023-11-19T00:05:04;17.30;;;2.75;;
61638;SDS011;47544;52.484;4.658;2023-11-19T00:05:18;18.58;;;2.70;;
61638;SDS011;47544;52.484;4.658;2023-11-19T00:05:29;21.50;;;3.30;;
61638;SDS011;47544;52.484;4.658;2023-11-19T00:05:40;23.25;;;3.90;;
61638;SDS011;47544;52.484;4.658;2023-11-19T00:05:52;22.85;;;4.03;;
61638;SDS011;47544;52.484;4.658;2023-11-19T00:06:03;22.13;;;3.83;;
61638;SDS011;47544;52.484;4.658;2023-11-19T00:06:16;24.30;;;3.83;;
61638;SDS011;47544;52.484;4.658;2023-11-19T00:06:27;23.40;;;3.90;;
61638;SDS011;47544;52.484;4.658;2023-11-19T00:06:38;20.17;;;3.50;;
61638;SDS011;47544;52.484;4.658;2023-11-19T00:06:49;14.90;;;2.80;;
61638;SDS011;47544;52.484;4.658;2023-11-19T00:07:00;16.77;;;2.97;;
61638;SDS011;47544;52.484;4.658;2023-11-19T00:07:15;21.00;;;3.45;;
61638;SDS011;47544;52.484;4.658;2023-11-19T00:07:26;25.33;;;3.95;;
61638;SDS011;47544;52.484;4.658;2023-11-19T00:07:37;24.52;;;3.90;;
61638;SDS011;47544;52.484;4.658;2023-11-19T00:07:51;21.15;;;3.60;;
61638;SDS011;47544;52.484;4.658;2023-11-19T00:08:03;18.77;;;3.53;;
61638;SDS011;47544;52.484;4.658;2023-11-19T00:08:14;19.88;;;3.50;;
61638;SDS011;47544;52.484;4.658;2023-11-19T00:08:25;22.30;;;3.83;;
61638;SDS011;47544;52.484;4.658;2023-11-19T00:08:37;17.75;;;3.55;;
61638;SDS011;47544;52.484;4.658;2023-11-19T00:08:48;17.20;;;3.35;;
61638;SDS011;47544;52.484;4.658;2023-11-19T00:08:59;19.73;;;3.40;;
61638;SDS011;47544;52.484;4.658;2023-11-19T00:09:10;19.77;;;3.13;;
61638;SDS011;47544;52.484;4.658;2023-11-19T00:09:22;15.85;;;2.83;;
61638;SDS011;47544;52.484;4.658;2023-11-19T00:09:33;16.40;;;3.37;;
61638;SDS011;47544;52.484;4.658;2023-11-19T00:09:47;20.60;;;3.90;;
61638;SDS011;47544;52.484;4.658;2023-11-19T00:09:58;22.17;;;4.05;;
61638;SDS011;47544;52.484;4.658;2023-11-19T00:10:10;21.70;;;3.47;;
61638;SDS011;47544;52.484;4.658;2023-11-19T00:10:22;19.75;;;3.65;;
61638;SDS011;47544;52.484;4.658;2023-11-19T00:10:33;18.92;;;3.70;;
61638;SDS011;47544;52.484;4.658;2023-11-19T00:10:44;16.40;;;3.40;;
61638;SDS011;47544;52.484;4.658;2023-11-19T00:10:55;15.88;;;3.20;;
61638;SDS011;47544;52.484;4.658;2023-11-19T00:11:06;15.65;;;3.10;;
61638;SDS011;47544;52.484;4.658;2023-11-19T00:11:16;16.55;;;3.30;;
61638;SDS011;47544;52.484;4.658;2023-11-19T00:11:27;19.35;;;3.35;;
61638;SDS011;47544;52.484;4.658;2023-11-19T00:11:39;18.55;;;3.15;;
61638;SDS011;47544;52.484;4.658;2023-11-19T00:11:50;19.92;;;3.20;;
61638;SDS011;47544;52.484;4.658;2023-11-19T00:12:01;16.92;;;3.03;;
61638;SDS011;47544;52.484;4.658;2023-11-19T00:12:13;16.70;;;3.05;;
61638;SDS011;47544;52.484;4.658;2023-11-19T00:12:24;17.17;;;3.47;;
61638;SDS011;47544;52.484;4.658;2023-11-19T00:12:35;16.73;;;3.47;;
61638;SDS011;47544;52.484;4.658;2023-11-19T00:12:47;18.70;;;3.57;;
61638;SDS011;47544;52.484;4.658;2023-11-19T00:12:58;20.98;;;3.25;;
61638;SDS011;47544;52.484;4.658;2023-11-19T00:13:09;25.13;;;3.67;;
61638;SDS011;47544;52.484;4.658;2023-11-19T00:13:20;24.73;;;3.72;;
61638;SDS011;47544;52.484;4.658;2023-11-19T00:13:31;22.25;;;3.63;;
61638;SDS011;47544;52.484;4.658;2023-11-19T00:13:43;21.08;;;4.10;;
61638;SDS011;47544;52.484;4.658;2023-11-19T00:13:54;16.98;;;3.75;;
61638;SDS011;47544;52.484;4.658;2023-11-19T00:14:05;16.02;;;3.60;;
61638;SDS011;47544;52.484;4.658;2023-11-19T00:14:19;16.98;;;3.22;;
61638;SDS011;47544;52.484;4.658;2023-11-19T00:14:30;22.30;;;4.22;;
61638;SDS011;47544;52.484;4.658;2023-11-19T00:14:41;21.27;;;3.67;;
61638;SDS011;47544;52.484;4.658;2023-11-19T00:14:52;22.50;;;3.90;;
61638;SDS011;47544;52.484;4.658;2023-11-19T00:15:03;19.85;;;3.45;;
61638;SDS011;47544;52.484;4.658;2023-11-19T00:15:15;20.35;;;3.47;;
61638;SDS011;47544;52.484;4.658;2023-11-19T00:15:26;19.23;;;3.55;;
61638;SDS011;47544;52.484;4.658;2023-11-19T00:15:39;19.40;;;3.65;;
61638;SDS011;47544;52.484;4.658;2023-11-19T00:15:49;18.85;;;3.53;;
61638;SDS011;47544;52.484;4.658;2023-11-19T00:16:00;17.65;;;3.53;;
61638;SDS011;47544;52.484;4.658;2023-11-19T00:16:11;15.55;;;3.08;;
61638;SDS011;47544;52.484;4.658;2023-11-19T00:16:22;21.17;;;3.63;;
61638;SDS011;47544;52.484;4.658;2023-11-19T00:16:33;22.48;;;3.95;;
61638;SDS011;47544;52.484;4.658;2023-11-19T00:16:44;20.85;;;3.80;;
61638;SDS011;47544;52.484;4.658;2023-11-19T00:16:55;17.33;;;3.15;;
61638;SDS011;47544;52.484;4.658;2023-11-19T00:17:06;16.83;;;2.88;;
61638;SDS011;47544;52.484;4.658;2023-11-19T00:17:17;16.27;;;3.08;;
61638;SDS011;47544;52.484;4.658;2023-11-19T00:17:28;16.88;;;3.30;;
61638;SDS011;47544;52.484;4.658;2023-11-19T00:17:41;14.40;;;3.20;;
61638;SDS011;47544;52.484;4.658;2023-11-19T00:17:55;12.27;;;2.85;;
61638;SDS011;47544;52.484;4.658;2023-11-19T00:18:06;13.73;;;3.10;;
61638;SDS011;47544;52.484;4.658;2023-11-19T00:18:16;16.02;;;3.30;;
61638;SDS011;47544;52.484;4.658;2023-11-19T00:18:27;14.98;;;3.15;;
61638;SDS011;47544;52.484;4.658;2023-11-19T00:18:38;19.20;;;3.60;;
61638;SDS011;47544;52.484;4.658;2023-11-19T00:18:50;22.17;;;4.80;;
61638;SDS011;47544;52.484;4.658;2023-11-19T00:19:02;23.98;;;4.70;;
61638;SDS011;47544;52.484;4.658;2023-11-19T00:19:14;18.55;;;3.85;;
61638;SDS011;47544;52.484;4.658;2023-11-19T00:19:28;15.13;;;2.95;;
61638;SDS011;47544;52.484;4.658;2023-11-19T00:19:39;17.08;;;3.35;;
61638;SDS011;47544;52.484;4.658;2023-11-19T00:19:50;21.23;;;3.88;;
61638;SDS011;47544;52.484;4.658;2023-11-19T00:20:02;20.88;;;3.72;;
61638;SDS011;47544;52.484;4.658;2023-11-19T00:20:16;20.08;;;3.60;;
61638;SDS011;47544;52.484;4.658;2023-11-19T00:20:27;21.05;;;3.75;;
61638;SDS011;47544;52.484;4.658;2023-11-19T00:20:39;23.27;;;3.65;;
61638;SDS011;47544;52.484;4.658;2023-11-19T00:20:50;21.13;;;3.55;;
61638;SDS011;47544;52.484;4.658;2023-11-19T00:21:01;23.45;;;3.90;;
61638;SDS011;47544;52.484;4.658;2023-11-19T00:21:12;21.05;;;3.63;;
61638;SDS011;47544;52.484;4.658;2023-11-19T00:21:23;15.85;;;2.75;;
61638;SDS011;47544;52.484;4.658;2023-11-19T00:21:42;17.13;;;2.75;;
61638;SDS011;47544;52.484;4.658;2023-11-19T00:21:53;20.27;;;3.65;;
61638;SDS011;47544;52.484;4.658;2023-11-19T00:22:04;16.35;;;3.75;;
61638;SDS011;47544;52.484;4.658;2023-11-19T00:22:14;18.17;;;3.72;;
61638;SDS011;47544;52.484;4.658;2023-11-19T00:22:25;19.00;;;3.30;;
61638;SDS011;47544;52.484;4.658;2023-11-19T00:22:36;18.65;;;3.13;;
61638;SDS011;47544;52.484;4.658;2023-11-19T00:22:47;16.23;;;3.40;;
61638;SDS011;47544;52.484;4.658;2023-11-19T00:22:59;14.77;;;3.20;;
61638;SDS011;47544;52.484;4.658;2023-11-19T00:23:10;16.63;;;3.28;;
61638;SDS011;47544;52.484;4.658;2023-11-19T00:23:20;18.27;;;3.28;;
61638;SDS011;47544;52.484;4.658;2023-11-19T00:23:31;18.30;;;3.25;;
61638;SDS011;47544;52.484;4.658;2023-11-19T00:23:44;20.35;;;3.67;;
61638;SDS011;47544;52.484;4.658;2023-11-19T00:23:55;21.20;;;4.10;;
61638;SDS011;47544;52.484;4.658;2023-11-19T00:24:06;19.05;;;4.05;;
61638;SDS011;47544;52.484;4.658;2023-11-19T00:24:18;17.00;;;4.13;;
61638;SDS011;47544;52.484;4.658;2023-11-19T00:24:29;16.67;;;3.50;;
61638;SDS011;47544;52.484;4.658;2023-11-19T00:24:41;18.20;;;3.35;;
61638;SDS011;47544;52.484;4.658;2023-11-19T00:24:52;14.93;;;3.13;;
61638;SDS011;47544;52.484;4.658;2023-11-19T00:25:03;16.98;;;3.15;;
61638;SDS011;47544;52.484;4.658;2023-11-19T00:25:14;18.80;;;3.15;;
61638;SDS011;47544;52.484;4.658;2023-11-19T00:25:26;22.88;;;3.60;;
61638;SDS011;47544;52.484;4.658;2023-11-19T00:25:37;24.63;;;3.88;;
61638;SDS011;47544;52.484;4.658;2023-11-19T00:25:49;26.02;;;4.30;;
61638;SDS011;47544;52.484;4.658;2023-11-19T00:26:00;21.67;;;3.63;;
61638;SDS011;47544;52.484;4.658;2023-11-19T00:26:11;17.65;;;3.15;;
61638;SDS011;47544;52.484;4.658;2023-11-19T00:26:25;15.15;;;3.40;;
61638;SDS011;47544;52.484;4.658;2023-11-19T00:26:36;18.35;;;3.78;;
61638;SDS011;47544;52.484;4.658;2023-11-19T00:26:49;24.25;;;3.63;;
61638;SDS011;47544;52.484;4.658;2023-11-19T00:27:00;21.42;;;3.50;;
61638;SDS011;47544;52.484;4.658;2023-11-19T00:27:13;17.70;;;3.35;;
61638;SDS011;47544;52.484;4.658;2023-11-19T00:27:24;17.63;;;3.53;;
61638;SDS011;47544;52.484;4.658;2023-11-19T00:27:34;21.85;;;3.47;;
61638;SDS011;47544;52.484;4.658;2023-11-19T00:27:46;24.17;;;3.70;;
61638;SDS011;47544;52.484;4.658;2023-11-19T00:27:56;24.87;;;3.63;;
61638;SDS011;47544;52.484;4.658;2023-11-19T00:28:07;22.90;;;3.67;;
61638;SDS011;47544;52.484;4.658;2023-11-19T00:28:18;20.30;;;3.78;;
61638;SDS011;47544;52.484;4.658;2023-11-19T00:28:29;19.33;;;3.85;;
61638;SDS011;47544;52.484;4.658;2023-11-19T00:28:40;19.73;;;3.95;;
61638;SDS011;47544;52.484;4.658;2023-11-19T00:28:53;18.92;;;3.38;;
61638;SDS011;47544;52.484;4.658;2023-11-19T00:29:06;21.85;;;3.35;;
61638;SDS011;47544;52.484;4.658;2023-11-19T00:29:17;19.58;;;3.38;;
61638;SDS011;47544;52.484;4.658;2023-11-19T00:29:29;20.48;;;3.42;;
61638;SDS011;47544;52.484;4.658;2023-11-19T00:29:40;24.85;;;3.83;;
61638;SDS011;47544;52.484;4.658;2023-11-19T00:29:51;27.08;;;3.80;;
61638;SDS011;47544;52.484;4.658;2023-11-19T00:30:02;26.23;;;3.75;;
61638;SDS011;47544;52.484;4.658;2023-11-19T00:30:15;25.83;;;4.53;;
61638;SDS011;47544;52.484;4.658;2023-11-19T00:30:27;24.27;;;4.60;;
61638;SDS011;47544;52.484;4.658;2023-11-19T00:30:39;19.17;;;4.07;;
61638;SDS011;47544;52.484;4.658;2023-11-19T00:30:51;18.45;;;3.65;;
61638;SDS011;47544;52.484;4.658;2023-11-19T00:31:02;21.23;;;3.40;;
61638;SDS011;47544;52.484;4.658;2023-11-19T00:31:13;21.85;;;3.63;;
61638;SDS011;47544;52.484;4.658;2023-11-19T00:31:24;24.00;;;3.92;;
61638;SDS011;47544;52.484;4.658;2023-11-19T00:31:38;24.63;;;5.15;;
61638;SDS011;47544;52.484;4.658;2023-11-19T00:31:49;22.40;;;4.53;;
61638;SDS011;47544;52.484;4.658;2023-11-19T00:32:00;24.35;;;4.43;;
61638;SDS011;47544;52.484;4.658;2023-11-19T00:32:11;25.25;;;3.83;;
61638;SDS011;47544;52.484;4.658;2023-11-19T00:32:22;24.08;;;3.83;;
61638;SDS011;47544;52.484;4.658;2023-11-19T00:32:33;22.27;;;3.80;;
61638;SDS011;47544;52.484;4.658;2023-11-19T00:32:45;18.75;;;3.35;;
61638;SDS011;47544;52.484;4.658;2023-11-19T00:32:56;17.38;;;2.83;;
61638;SDS011;47544;52.484;4.658;2023-11-19T00:33:07;17.63;;;2.95;;
61638;SDS011;47544;52.484;4.658;2023-11-19T00:33:18;19.88;;;3.72;;
61638;SDS011;47544;52.484;4.658;2023-11-19T00:33:29;19.50;;;4.22;;
61638;SDS011;47544;52.484;4.658;2023-11-19T00:33:40;16.67;;;3.67;;
61638;SDS011;47544;52.484;4.658;2023-11-19T00:33:51;14.88;;;2.85;;
61638;SDS011;47544;52.484;4.658;2023-11-19T00:34:03;17.17;;;2.53;;
61638;SDS011;47544;52.484;4.658;2023-11-19T00:34:14;19.75;;;2.65;;
61638;SDS011;47544;52.484;4.658;2023-11-19T00:34:25;21.20;;;2.97;;
61638;SDS011;47544;52.484;4.658;2023-11-19T00:34:37;18.60;;;3.03;;
61638;SDS011;47544;52.484;4.658;2023-11-19T00:34:48;18.20;;;3.03;;
61638;SDS011;47544;52.484;4.658;2023-11-19T00:34:58;19.40;;;3.53;;
61638;SDS011;47544;52.484;4.658;2023-11-19T00:35:09;19.73;;;3.97;;
61638;SDS011;47544;52.484;4.658;2023-11-19T00:35:20;21.60;;;4.18;;
61638;SDS011;47544;52.484;4.658;2023-11-19T00:35:31;24.60;;;3.90;;
61638;SDS011;47544;52.484;4.658;2023-11-19T00:35:43;21.02;;;3.28;;
61638;SDS011;47544;52.484;4.658;2023-11-19T00:35:54;18.67;;;3.05;;
61638;SDS011;47544;52.484;4.658;2023-11-19T00:36:06;18.45;;;3.13;;
61638;SDS011;47544;52.484;4.658;2023-11-19T00:36:17;19.35;;;3.35;;
61638;SDS011;47544;52.484;4.658;2023-11-19T00:36:28;18.92;;;3.20;;
61638;SDS011;47544;52.484;4.658;2023-11-19T00:36:40;17.80;;;3.03;;
61638;SDS011;47544;52.484;4.658;2023-11-19T00:36:51;16.52;;;3.08;;
61638;SDS011;47544;52.484;4.658;2023-11-19T00:37:02;19.00;;;3.70;;
61638;SDS011;47544;52.484;4.658;2023-11-19T00:37:14;20.92;;;3.83;;
61638;SDS011;47544;52.484;4.658;2023-11-19T00:37:25;17.92;;;3.45;;
61638;SDS011;47544;52.484;4.658;2023-11-19T00:37:37;11.20;;;2.90;;
61638;SDS011;47544;52.484;4.658;2023-11-19T00:37:47;12.43;;;3.42;;
61638;SDS011;47544;52.484;4.658;2023-11-19T00:37:59;14.07;;;3.88;;
61638;SDS011;47544;52.484;4.658;2023-11-19T00:38:10;16.50;;;4.15;;
61638;SDS011;47544;52.484;4.658;2023-11-19T00:38:21;20.03;;;4.27;;
61638;SDS011;47544;52.484;4.658;2023-11-19T00:38:33;21.38;;;3.63;;
61638;SDS011;47544;52.484;4.658;2023-11-19T00:38:44;20.67;;;3.60;;
61638;SDS011;47544;52.484;4.658;2023-11-19T00:38:55;18.20;;;3.42;;
61638;SDS011;47544;52.484;4.658;2023-11-19T00:39:06;17.35;;;3.17;;
61638;SDS011;47544;52.484;4.658;2023-11-19T00:39:17;17.17;;;2.92;;
61638;SDS011;47544;52.484;4.658;2023-11-19T00:39:28;16.92;;;3.05;;
61638;SDS011;47544;52.484;4.658;2023-11-19T00:39:39;18.38;;;3.22;;
61638;SDS011;47544;52.484;4.658;2023-11-19T00:39:50;16.92;;;3.10;;
61638;SDS011;47544;52.484;4.658;2023-11-19T00:40:02;16.00;;;3.00;;
61638;SDS011;47544;52.484;4.658;2023-11-19T00:40:16;18.52;;;3.47;;
61638;SDS011;47544;52.484;4.658;2023-11-19T00:40:28;19.50;;;3.38;;
61638;SDS011;47544;52.484;4.658;2023-11-19T00:40:39;20.23;;;3.05;;
61638;SDS011;47544;52.484;4.658;2023-11-19T00:40:51;20.15;;;3.03;;
61638;SDS011;47544;52.484;4.658;2023-11-19T00:41:02;21.45;;;3.45;;
61638;SDS011;47544;52.484;4.658;2023-11-19T00:41:14;19.52;;;3.45;;
61638;SDS011;47544;52.484;4.658;2023-11-19T00:41:27;20.50;;;3.58;;
61638;SDS011;47544;52.484;4.658;2023-11-19T00:41:38;17.08;;;3.50;;
61638;SDS011;47544;52.484;4.658;2023-11-19T00:41:49;18.65;;;3.47;;
61638;SDS011;47544;52.484;4.658;2023-11-19T00:41:59;18.73;;;3.25;;
61638;SDS011;47544;52.484;4.658;2023-11-19T00:42:11;23.63;;;3.55;;
61638;SDS011;47544;52.484;4.658;2023-11-19T00:42:22;20.43;;;3.80;;
61638;SDS011;47544;52.484;4.658;2023-11-19T00:42:34;22.60;;;4.10;;
61638;SDS011;47544;52.484;4.658;2023-11-19T00:42:45;17.08;;;3.47;;
61638;SDS011;47544;52.484;4.658;2023-11-19T00:42:56;18.02;;;3.03;;
61638;SDS011;47544;52.484;4.658;2023-11-19T00:43:07;14.95;;;2.55;;
61638;SDS011;47544;52.484;4.658;2023-11-19T00:43:18;13.73;;;2.70;;
61638;SDS011;47544;52.484;4.658;2023-11-19T00:43:32;12.93;;;2.75;;
61638;SDS011;47544;52.484;4.658;2023-11-19T00:43:43;15.48;;;3.17;;
61638;SDS011;47544;52.484;4.658;2023-11-19T00:43:55;19.17;;;3.10;;
61638;SDS011;47544;52.484;4.658;2023-11-19T00:44:06;20.33;;;3.15;;
61638;SDS011;47544;52.484;4.658;2023-11-19T00:44:17;22.70;;;3.47;;
61638;SDS011;47544;52.484;4.658;2023-11-19T00:44:28;23.80;;;3.75;;
61638;SDS011;47544;52.484;4.658;2023-11-19T00:44:39;23.52;;;4.15;;
61638;SDS011;47544;52.484;4.658;2023-11-19T00:44:49;23.30;;;4.30;;
61638;SDS011;47544;52.484;4.658;2023-11-19T00:45:00;24.38;;;4.47;;
61638;SDS011;47544;52.484;4.658;2023-11-19T00:45:12;21.70;;;4.25;;
61638;SDS011;47544;52.484;4.658;2023-11-19T00:45:23;24.00;;;4.30;;
61638;SDS011;47544;52.484;4.658;2023-11-19T00:45:36;29.55;;;4.55;;
61638;SDS011;47544;52.484;4.658;2023-11-19T00:45:47;26.00;;;4.28;;
61638;SDS011;47544;52.484;4.658;2023-11-19T00:46:01;24.23;;;4.30;;
61638;SDS011;47544;52.484;4.658;2023-11-19T00:46:11;23.33;;;3.95;;
61638;SDS011;47544;52.484;4.658;2023-11-19T00:46:24;26.55;;;4.13;;
61638;SDS011;47544;52.484;4.658;2023-11-19T00:46:35;24.75;;;3.70;;
61638;SDS011;47544;52.484;4.658;2023-11-19T00:46:45;22.98;;;3.67;;
61638;SDS011;47544;52.484;4.658;2023-11-19T00:46:56;22.40;;;3.50;;
61638;SDS011;47544;52.484;4.658;2023-11-19T00:47:07;24.17;;;3.47;;
61638;SDS011;47544;52.484;4.658;2023-11-19T00:47:18;26.95;;;4.15;;
61638;SDS011;47544;52.484;4.658;2023-11-19T00:47:30;21.95;;;3.67;;
61638;SDS011;47544;52.484;4.658;2023-11-19T00:47:41;18.75;;;3.47;;
61638;SDS011;47544;52.484;4.658;2023-11-19T00:47:52;15.27;;;2.90;;
61638;SDS011;47544;52.484;4.658;2023-11-19T00:48:04;22.33;;;3.80;;
61638;SDS011;47544;52.484;4.658;2023-11-19T00:48:16;27.17;;;4.30;;
61638;SDS011;47544;52.484;4.658;2023-11-19T00:48:27;28.92;;;4.78;;
61638;SDS011;47544;52.484;4.658;2023-11-19T00:48:38;26.40;;;3.92;;
61638;SDS011;47544;52.484;4.658;2023-11-19T00:48:49;24.07;;;3.70;;
61638;SDS011;47544;52.484;4.658;2023-11-19T00:49:00;24.13;;;3.43;;
61638;SDS011;47544;52.484;4.658;2023-11-19T00:49:13;21.38;;;3.75;;
61638;SDS011;47544;52.484;4.658;2023-11-19T00:49:24;19.92;;;3.53;;
61638;SDS011;47544;52.484;4.658;2023-11-19T00:49:34;17.75;;;3.55;;
61638;SDS011;47544;52.484;4.658;2023-11-19T00:49:45;14.85;;;2.67;;
61638;SDS011;47544;52.484;4.658;2023-11-19T00:49:56;16.10;;;2.70;;
61638;SDS011;47544;52.484;4.658;2023-11-19T00:50:08;16.70;;;2.88;;
61638;SDS011;47544;52.484;4.658;2023-11-19T00:50:20;16.25;;;2.78;;
61638;SDS011;47544;52.484;4.658;2023-11-19T00:50:31;16.85;;;2.88;;
61638;SDS011;47544;52.484;4.658;2023-11-19T00:50:43;17.45;;;3.17;;
61638;SDS011;47544;52.484;4.658;2023-11-19T00:50:55;17.13;;;3.13;;
61638;SDS011;47544;52.484;4.658;2023-11-19T00:51:06;17.05;;;3.03;;
61638;SDS011;47544;52.484;4.658;2023-11-19T00:51:17;18.40;;;3.22;;
61638;SDS011;47544;52.484;4.658;2023-11-19T00:51:28;16.70;;;3.20;;
61638;SDS011;47544;52.484;4.658;2023-11-19T00:51:42;13.55;;;2.92;;
61638;SDS011;47544;52.484;4.658;2023-11-19T00:51:52;14.25;;;2.75;;
61638;SDS011;47544;52.484;4.658;2023-11-19T00:52:04;21.30;;;4.03;;
61638;SDS011;47544;52.484;4.658;2023-11-19T00:52:17;26.38;;;4.65;;
61638;SDS011;47544;52.484;4.658;2023-11-19T00:52:28;23.88;;;4.07;;
61638;SDS011;47544;52.484;4.658;2023-11-19T00:52:40;19.00;;;3.42;;
61638;SDS011;47544;52.484;4.658;2023-11-19T00:52:51;23.98;;;3.90;;
61638;SDS011;47544;52.484;4.658;2023-11-19T00:53:02;25.48;;;4.35;;
61638;SDS011;47544;52.484;4.658;2023-11-19T00:53:14;24.80;;;4.40;;
61638;SDS011;47544;52.484;4.658;2023-11-19T00:53:25;24.10;;;4.20;;
61638;SDS011;47544;52.484;4.658;2023-11-19T00:53:37;23.83;;;4.07;;
61638;SDS011;47544;52.484;4.658;2023-11-19T00:53:48;23.15;;;3.92;;
61638;SDS011;47544;52.484;4.658;2023-11-19T00:53:59;17.95;;;3.63;;
61638;SDS011;47544;52.484;4.658;2023-11-19T00:54:09;14.02;;;2.92;;
61638;SDS011;47544;52.484;4.658;2023-11-19T00:54:20;15.27;;;2.92;;
61638;SDS011;47544;52.484;4.658;2023-11-19T00:54:31;17.98;;;3.05;;
61638;SDS011;47544;52.484;4.658;2023-11-19T00:54:42;20.40;;;3.63;;
61638;SDS011;47544;52.484;4.658;2023-11-19T00:54:53;19.42;;;3.75;;
61638;SDS011;47544;52.484;4.658;2023-11-19T00:55:05;16.33;;;3.45;;
61638;SDS011;47544;52.484;4.658;2023-11-19T00:55:16;21.35;;;3.65;;
61638;SDS011;47544;52.484;4.658;2023-11-19T00:55:27;24.77;;;4.32;;
61638;SDS011;47544;52.484;4.658;2023-11-19T00:55:39;28.40;;;4.47;;
61638;SDS011;47544;52.484;4.658;2023-11-19T00:55:51;27.75;;;4.50;;
61638;SDS011;47544;52.484;4.658;2023-11-19T00:56:02;24.75;;;4.18;;
61638;SDS011;47544;52.484;4.658;2023-11-19T00:56:13;22.05;;;3.47;;
61638;SDS011;47544;52.484;4.658;2023-11-19T00:56:24;19.63;;;3.17;;
61638;SDS011;47544;52.484;4.658;2023-11-19T00:56:35;16.88;;;2.75;;
61638;SDS011;47544;52.484;4.658;2023-11-19T00:56:47;14.13;;;2.47;;
61638;SDS011;47544;52.484;4.658;2023-11-19T00:56:58;15.75;;;2.80;;
61638;SDS011;47544;52.484;4.658;2023-11-19T00:57:09;20.23;;;3.47;;
61638;SDS011;47544;52.484;4.658;2023-11-19T00:57:20;19.80;;;3.78;;
61638;SDS011;47544;52.484;4.658;2023-11-19T00:57:32;21.08;;;3.85;;
61638;SDS011;47544;52.484;4.658;2023-11-19T00:57:43;21.17;;;3.85;;
61638;SDS011;47544;52.484;4.658;2023-11-19T00:57:54;27.00;;;4.17;;
61638;SDS011;47544;52.484;4.658;2023-11-19T00:58:07;26.58;;;3.92;;
61638;SDS011;47544;52.484;4.658;2023-11-19T00:58:17;24.35;;;3.50;;
61638;SDS011;47544;52.484;4.658;2023-11-19T00:58:28;22.10;;;3.40;;
61638;SDS011;47544;52.484;4.658;2023-11-19T00:58:40;24.55;;;3.95;;
61638;SDS011;47544;52.484;4.658;2023-11-19T00:58:51;22.05;;;3.80;;
61638;SDS011;47544;52.484;4.658;2023-11-19T00:59:02;20.63;;;3.55;;
61638;SDS011;47544;52.484;4.658;2023-11-19T00:59:13;19.83;;;3.30;;
61638;SDS011;47544;52.484;4.658;2023-11-19T00:59:24;19.77;;;3.28;;
61638;SDS011;47544;52.484;4.658;2023-11-19T00:59:35;16.23;;;3.00;;
61638;SDS011;47544;52.484;4.658;2023-11-19T00:59:48;19.20;;;3.78;;
61638;SDS011;47544;52.484;4.658;2023-11-19T00:59:58;22.05;;;3.88;;
61638;SDS011;47544;52.484;4.658;2023-11-19T01:00:10;20.63;;;4.05;;
61638;SDS011;47544;52.484;4.658;2023-11-19T01:00:28;19.67;;;4.32;;
61638;SDS011;47544;52.484;4.658;2023-11-19T01:00:39;21.50;;;4.00;;
61638;SDS011;47544;52.484;4.658;2023-11-19T01:00:50;19.67;;;3.60;;
61638;SDS011;47544;52.484;4.658;2023-11-19T01:01:01;16.08;;;3.15;;
61638;SDS011;47544;52.484;4.658;2023-11-19T01:01:13;18.15;;;3.35;;
61638;SDS011;47544;52.484;4.658;2023-11-19T01:01:25;24.98;;;4.15;;
61638;SDS011;47544;52.484;4.658;2023-11-19T01:01:36;27.40;;;4.22;;
61638;SDS011;47544;52.484;4.658;2023-11-19T01:01:47;21.15;;;3.38;;
61638;SDS011;47544;52.484;4.658;2023-11-19T01:01:58;19.23;;;2.90;;
61638;SDS011;47544;52.484;4.658;2023-11-19T01:02:13;19.42;;;3.08;;
61638;SDS011;47544;52.484;4.658;2023-11-19T01:02:24;19.10;;;3.85;;
61638;SDS011;47544;52.484;4.658;2023-11-19T01:02:35;19.45;;;4.35;;
61638;SDS011;47544;52.484;4.658;2023-11-19T01:02:46;21.00;;;4.68;;
61638;SDS011;47544;52.484;4.658;2023-11-19T01:03:00;18.52;;;3.20;;
61638;SDS011;47544;52.484;4.658;2023-11-19T01:03:11;14.75;;;2.35;;
61638;SDS011;47544;52.484;4.658;2023-11-19T01:03:22;15.88;;;2.40;;
61638;SDS011;47544;52.484;4.658;2023-11-19T01:03:34;19.48;;;3.15;;
61638;SDS011;47544;52.484;4.658;2023-11-19T01:03:45;19.77;;;3.28;;
61638;SDS011;47544;52.484;4.658;2023-11-19T01:03:56;17.65;;;3.38;;
61638;SDS011;47544;52.484;4.658;2023-11-19T01:04:07;21.00;;;3.97;;
61638;SDS011;47544;52.484;4.658;2023-11-19T01:04:20;23.27;;;4.00;;
61638;SDS011;47544;52.484;4.658;2023-11-19T01:04:33;21.85;;;3.25;;
61638;SDS011;47544;52.484;4.658;2023-11-19T01:04:44;14.40;;;2.72;;
61638;SDS011;47544;52.484;4.658;2023-11-19T01:04:58;14.60;;;2.90;;
61638;SDS011;47544;52.484;4.658;2023-11-19T01:05:09;22.17;;;3.58;;
61638;SDS011;47544;52.484;4.658;2023-11-19T01:05:20;27.38;;;4.00;;
61638;SDS011;47544;52.484;4.658;2023-11-19T01:05:33;26.90;;;3.63;;
61638;SDS011;47544;52.484;4.658;2023-11-19T01:05:44;21.08;;;3.20;;
61638;SDS011;47544;52.484;4.658;2023-11-19T01:05:57;15.05;;;2.90;;
61638;SDS011;47544;52.484;4.658;2023-11-19T01:06:10;16.30;;;3.20;;
61638;SDS011;47544;52.484;4.658;2023-11-19T01:06:27;17.42;;;3.65;;
61638;SDS011;47544;52.484;4.658;2023-11-19T01:06:38;17.80;;;3.63;;
61638;SDS011;47544;52.484;4.658;2023-11-19T01:06:48;16.65;;;3.15;;
61638;SDS011;47544;52.484;4.658;2023-11-19T01:06:59;12.60;;;2.95;;
61638;SDS011;47544;52.484;4.658;2023-11-19T01:07:11;16.40;;;3.13;;
61638;SDS011;47544;52.484;4.658;2023-11-19T01:07:23;18.13;;;3.25;;
61638;SDS011;47544;52.484;4.658;2023-11-19T01:07:34;22.23;;;3.75;;
61638;SDS011;47544;52.484;4.658;2023-11-19T01:07:46;25.63;;;4.28;;
61638;SDS011;47544;52.484;4.658;2023-11-19T01:07:57;20.00;;;3.53;;
61638;SDS011;47544;52.484;4.658;2023-11-19T01:08:09;17.65;;;3.20;;